createdAt,value
2018-07-30T00:02:07.762Z,1.80
2018-07-30T00:07:11.197Z,1.67
2018-07-30T00:12:15.268Z,1.60
2018-07-30T00:17:18.703Z,1.83
2018-07-30T00:22:22.015Z,1.53
2018-07-30T00:27:25.311Z,1.80
2018-07-30T00:32:28.670Z,1.67
2018-07-30T00:37:31.988Z,1.90
2018-07-30T00:42:35.249Z,1.57
2018-07-30T00:47:38.545Z,1.87
2018-07-30T00:52:41.906Z,1.67
2018-07-30T00:57:45.171Z,1.80
2018-07-30T01:02:48.456Z,1.50
2018-07-30T01:07:51.798Z,1.60
2018-07-30T01:12:55.099Z,1.47
2018-07-30T01:17:58.415Z,1.67
2018-07-30T01:23:01.733Z,1.70
2018-07-30T01:28:05.187Z,1.70
2018-07-30T01:33:08.518Z,2.07
2018-07-30T01:38:11.791Z,1.80
2018-07-30T01:43:15.047Z,1.67
2018-07-30T01:48:18.348Z,1.33
2018-07-30T01:53:21.604Z,1.90
2018-07-30T01:58:24.946Z,1.50
2018-07-30T02:03:28.286Z,1.50
2018-07-30T02:08:31.554Z,1.60
2018-07-30T02:13:34.876Z,1.70
2018-07-30T02:18:38.163Z,1.67
2018-07-30T02:23:41.474Z,1.40
2018-07-30T02:28:44.798Z,1.90
2018-07-30T02:33:48.536Z,1.57
2018-07-30T02:38:51.780Z,1.80
2018-07-30T02:43:55.352Z,1.57
2018-07-30T02:48:59.199Z,1.43
2018-07-30T02:54:02.821Z,1.60
2018-07-30T02:59:06.377Z,1.47
2018-07-30T03:04:10.544Z,1.73
2018-07-30T03:09:13.874Z,2.07
2018-07-30T03:14:17.442Z,2.00
2018-07-30T03:19:21.099Z,1.53
2018-07-30T03:24:24.443Z,1.50
2018-07-30T03:29:27.704Z,1.47
2018-07-30T03:34:30.982Z,1.77
2018-07-30T03:39:34.535Z,1.80
2018-07-30T03:44:37.900Z,1.80
2018-07-30T03:49:41.304Z,1.77
2018-07-30T03:54:44.686Z,1.77
2018-07-30T03:59:47.938Z,1.80
2018-07-30T04:04:51.228Z,2.20
2018-07-30T04:09:54.519Z,1.67
2018-07-30T04:14:57.774Z,1.93
2018-07-30T04:20:01.054Z,1.90
2018-07-30T04:30:13.254Z,2.00
2018-07-30T04:35:16.967Z,1.70
2018-07-30T04:40:20.575Z,1.77
2018-07-30T04:45:23.932Z,2.03
2018-07-30T04:50:27.294Z,1.63
2018-07-30T04:55:30.603Z,1.80
2018-07-30T05:00:33.911Z,2.03
2018-07-30T05:05:38.316Z,2.03
2018-07-30T05:10:42.696Z,1.83
2018-07-30T05:15:45.999Z,1.80
2018-07-30T05:20:49.259Z,2.00
2018-07-30T05:25:52.676Z,2.03
2018-07-30T05:30:55.967Z,1.83
2018-07-30T05:35:59.222Z,1.70
2018-07-30T05:41:02.508Z,1.53
2018-07-30T05:46:05.988Z,1.83
2018-07-30T05:51:09.311Z,1.67
2018-07-30T05:56:12.654Z,2.10
2018-07-30T06:01:16.122Z,2.00
2018-07-30T06:06:19.404Z,1.80
2018-07-30T06:11:22.880Z,1.90
2018-07-30T06:16:27.189Z,2.03
2018-07-30T06:21:30.447Z,1.50
2018-07-30T06:26:33.835Z,2.00
2018-07-30T06:31:38.601Z,1.40
2018-07-30T06:36:41.982Z,1.80
2018-07-30T06:41:45.293Z,1.50
2018-07-30T06:46:48.598Z,1.50
2018-07-30T06:51:52.034Z,1.77
2018-07-30T06:56:55.402Z,1.73
2018-07-30T07:01:58.712Z,1.57
2018-07-30T07:07:01.984Z,1.70
2018-07-30T07:12:05.281Z,1.70
2018-07-30T07:17:09.046Z,1.67
2018-07-30T07:22:12.365Z,1.63
2018-07-30T07:27:15.623Z,1.37
2018-07-30T07:32:18.917Z,1.90
2018-07-30T07:37:22.355Z,1.63
2018-07-30T07:42:25.675Z,1.60
2018-07-30T07:47:29.003Z,1.80
2018-07-30T07:52:32.632Z,1.57
2018-07-30T07:57:35.970Z,1.30
2018-07-30T08:02:39.445Z,1.43
2018-07-30T08:07:42.700Z,1.50
2018-07-30T08:12:45.944Z,1.60
2018-07-30T08:17:49.311Z,1.10
2018-07-30T08:22:52.669Z,1.23
2018-07-30T08:27:55.980Z,1.10
2018-07-30T08:32:59.292Z,1.20
2018-07-30T08:38:02.623Z,0.97
2018-07-30T08:43:05.971Z,1.13
2018-07-30T08:48:09.229Z,1.27
2018-07-30T08:53:13.245Z,1.60
2018-07-30T08:58:16.619Z,1.53
2018-07-30T09:03:19.975Z,1.60
2018-07-30T09:08:23.250Z,1.83
2018-07-30T09:13:26.496Z,1.43
2018-07-30T09:18:29.743Z,1.37
2018-07-30T09:23:33.051Z,1.63
2018-07-30T09:28:36.403Z,1.50
2018-07-30T09:33:39.658Z,1.43
2018-07-30T09:38:43.044Z,1.23
2018-07-30T09:43:46.618Z,1.80
2018-07-30T09:48:49.922Z,1.43
2018-07-30T09:53:54.118Z,1.70
2018-07-30T09:58:57.390Z,1.43
2018-07-30T10:04:01.279Z,1.30
2018-07-30T10:09:09.543Z,1.50
2018-07-30T10:14:12.794Z,1.50
2018-07-30T10:19:16.097Z,1.40
2018-07-30T10:24:19.386Z,1.27
2018-07-30T10:29:22.706Z,1.80
2018-07-30T10:34:26.002Z,1.40
2018-07-30T10:39:29.017Z,1.50
2018-07-30T10:44:32.335Z,1.23
2018-07-30T10:49:35.621Z,1.37
2018-07-30T10:54:38.887Z,1.30
2018-07-30T10:59:42.214Z,1.57
2018-07-30T11:04:45.458Z,1.53
2018-07-30T11:09:48.817Z,1.70
2018-07-30T11:14:51.994Z,1.20
2018-07-30T11:19:55.333Z,1.40
2018-07-30T11:24:58.623Z,1.45
2018-07-30T11:30:01.966Z,1.43
2018-07-30T11:35:05.410Z,1.20
2018-07-30T11:40:08.668Z,1.23
2018-07-30T11:45:11.966Z,1.02
2018-07-30T11:50:15.268Z,1.20
2018-07-30T11:55:18.526Z,1.25
2018-07-30T12:00:21.822Z,1.10
2018-07-30T12:05:25.182Z,1.13
2018-07-30T12:10:28.430Z,1.27
2018-07-30T12:15:31.742Z,1.10
2018-07-30T12:20:35.008Z,1.00
2018-07-30T12:25:38.339Z,1.17
2018-07-30T12:30:41.348Z,1.50
2018-07-30T12:35:44.603Z,1.20
2018-07-30T12:40:47.867Z,1.30
2018-07-30T12:45:51.114Z,1.25
2018-07-30T12:50:54.386Z,1.30
2018-07-30T12:55:57.650Z,1.22
2018-07-30T13:01:01.009Z,1.22
2018-07-30T13:06:04.260Z,1.40
2018-07-30T13:11:07.535Z,1.20
2018-07-30T13:16:10.824Z,1.10
2018-07-30T13:21:14.121Z,1.20
2018-07-30T13:26:17.476Z,1.00
2018-07-30T13:31:20.726Z,1.00
2018-07-30T13:36:24.125Z,1.10
2018-07-30T13:41:27.524Z,1.22
2018-07-30T13:46:30.915Z,1.10
2018-07-30T13:51:34.142Z,1.20
2018-07-30T13:56:37.563Z,1.10
2018-07-30T14:01:40.968Z,1.27
2018-07-30T14:06:44.319Z,1.45
2018-07-30T14:11:47.658Z,1.20
2018-07-30T14:16:50.955Z,1.27
2018-07-30T14:21:54.214Z,1.07
2018-07-30T14:26:57.505Z,1.15
2018-07-30T14:32:00.757Z,1.37
2018-07-30T14:37:04.165Z,1.12
2018-07-30T14:42:07.456Z,1.20
2018-07-30T14:47:10.715Z,1.27
2018-07-30T14:52:13.993Z,1.30
2018-07-30T14:57:17.264Z,1.30
2018-07-30T15:02:20.552Z,1.27
2018-07-30T15:07:23.876Z,1.20
2018-07-30T15:12:27.182Z,1.60
2018-07-30T15:17:30.421Z,1.15
2018-07-30T15:22:33.730Z,1.27
2018-07-30T15:27:37.046Z,1.40
2018-07-30T15:32:40.363Z,1.47
2018-07-30T15:37:43.640Z,1.40
2018-07-30T15:42:47.810Z,1.27
2018-07-30T15:47:51.056Z,1.40
2018-07-30T15:52:54.351Z,1.53
2018-07-30T15:57:57.637Z,1.30
2018-07-30T16:03:00.930Z,1.33
2018-07-30T16:08:04.219Z,1.40
2018-07-30T16:13:07.579Z,1.40
2018-07-30T16:18:10.870Z,1.23
2018-07-30T16:23:14.287Z,1.17
2018-07-30T16:28:17.527Z,1.30
2018-07-30T16:33:20.797Z,1.80
2018-07-30T16:38:24.086Z,1.37
2018-07-30T16:43:27.363Z,1.40
2018-07-30T16:48:30.679Z,1.37
2018-07-30T16:53:33.929Z,1.37
2018-07-30T16:58:37.634Z,1.10
2018-07-30T17:03:40.945Z,1.00
2018-07-30T17:08:44.267Z,1.10
2018-07-30T17:13:47.560Z,1.00
2018-07-30T17:18:50.974Z,1.20
2018-07-30T17:23:54.215Z,1.33
2018-07-30T17:28:57.611Z,1.23
2018-07-30T17:34:00.857Z,1.10
2018-07-30T17:39:06.067Z,0.90
2018-07-30T17:44:09.324Z,1.00
2018-07-30T17:49:12.643Z,0.90
2018-07-30T17:54:15.916Z,0.87
2018-07-30T17:59:19.198Z,1.10
2018-07-30T18:04:22.463Z,1.00
2018-07-30T18:09:25.764Z,1.00
2018-07-30T18:14:29.047Z,0.80
2018-07-30T18:19:32.386Z,0.70
2018-07-30T18:24:35.661Z,1.00
2018-07-30T18:29:38.994Z,0.90
2018-07-30T18:34:42.236Z,0.83
2018-07-30T18:39:45.511Z,0.90
2018-07-30T18:44:48.798Z,0.73
2018-07-30T18:49:52.249Z,1.07
2018-07-30T18:54:55.537Z,0.80
2018-07-30T18:59:58.831Z,1.07
2018-07-30T19:05:02.121Z,0.80
2018-07-30T19:10:06.164Z,0.97
2018-07-30T19:15:09.518Z,0.77
2018-07-30T19:20:12.785Z,0.80
2018-07-30T19:25:16.052Z,1.00
2018-07-30T19:30:19.371Z,1.03
2018-07-30T19:35:22.640Z,1.00
2018-07-30T19:40:25.967Z,1.00
2018-07-30T19:45:30.277Z,1.00
2018-07-30T19:50:33.527Z,1.03
2018-07-30T19:55:36.796Z,1.10
2018-07-30T20:00:39.795Z,1.13
2018-07-30T20:05:43.135Z,1.07
2018-07-30T20:10:46.388Z,1.07
2018-07-30T20:15:49.711Z,1.27
2018-07-30T20:20:53.091Z,1.00
2018-07-30T20:25:56.459Z,1.20
2018-07-30T20:30:59.775Z,1.20
2018-07-30T20:36:03.025Z,1.37
2018-07-30T20:41:06.349Z,1.03
2018-07-30T20:46:10.785Z,1.10
2018-07-30T20:51:14.159Z,1.07
2018-07-30T20:56:17.421Z,1.10
2018-07-30T21:01:21.604Z,1.00
2018-07-30T21:06:24.951Z,1.10
2018-07-30T21:11:28.380Z,1.37
2018-07-30T21:16:31.744Z,1.00
2018-07-30T21:21:35.077Z,1.10
2018-07-30T21:26:38.340Z,1.20
2018-07-30T21:31:42.001Z,1.00
2018-07-30T21:36:45.257Z,1.00
2018-07-30T21:41:48.663Z,1.43
2018-07-30T21:46:51.867Z,1.10
2018-07-30T21:51:55.613Z,1.17
2018-07-30T21:56:58.974Z,1.43
2018-07-30T22:02:02.248Z,1.07
2018-07-30T22:07:05.648Z,0.80
2018-07-30T22:12:09.018Z,0.97
2018-07-30T22:17:13.940Z,0.90
2018-07-30T22:22:17.263Z,1.07
2018-07-30T22:27:20.551Z,0.90
2018-07-30T22:32:24.167Z,0.80
2018-07-30T22:37:28.801Z,0.97
2018-07-30T22:42:32.058Z,0.97
2018-07-30T22:47:35.366Z,1.10
2018-07-30T22:52:38.632Z,1.10
2018-07-30T22:57:41.996Z,1.10
2018-07-30T23:02:45.295Z,1.20
2018-07-30T23:07:48.624Z,1.20
2018-07-30T23:12:51.921Z,0.90
2018-07-30T23:17:55.364Z,1.17
2018-07-30T23:22:58.643Z,1.17
2018-07-30T23:28:01.931Z,1.20
2018-07-30T23:33:05.212Z,1.20
2018-07-30T23:38:08.466Z,1.20
2018-07-30T23:43:11.815Z,1.30
2018-07-30T23:48:15.127Z,1.00
2018-07-30T23:53:18.382Z,1.03
2018-07-30T23:58:21.659Z,1.20
